sensor_id;sensor_type;location;lat;lon;timestamp;P1;durP1;ratioP1;P2;durP2;ratioP2
59872;SDS011;50750;51.636;4.948;2023-11-22T00:02:02;4.00;;;3.00;;
59872;SDS011;50750;51.636;4.948;2023-11-22T00:04:29;3.80;;;2.70;;
59872;SDS011;50750;51.636;4.948;2023-11-22T00:06:55;4.40;;;3.20;;
59872;SDS011;50750;51.636;4.948;2023-11-22T00:09:22;4.70;;;3.00;;
59872;SDS011;50750;51.636;4.948;2023-11-22T00:11:49;5.10;;;3.00;;
59872;SDS011;50750;51.636;4.948;2023-11-22T00:14:16;4.70;;;3.00;;
59872;SDS011;50750;51.636;4.948;2023-11-22T00:16:42;4.30;;;3.20;;
59872;SDS011;50750;51.636;4.948;2023-11-22T00:19:09;4.20;;;2.60;;
59872;SDS011;50750;51.636;4.948;2023-11-22T00:21:35;4.00;;;2.80;;
59872;SDS011;50750;51.636;4.948;2023-11-22T00:24:01;4.30;;;2.90;;
59872;SDS011;50750;51.636;4.948;2023-11-22T00:26:28;4.50;;;3.00;;
59872;SDS011;50750;51.636;4.948;2023-11-22T00:28:54;4.00;;;2.90;;
59872;SDS011;50750;51.636;4.948;2023-11-22T00:31:21;3.80;;;2.70;;
59872;SDS011;50750;51.636;4.948;2023-11-22T00:33:47;5.00;;;2.90;;
59872;SDS011;50750;51.636;4.948;2023-11-22T00:36:13;4.60;;;3.10;;
59872;SDS011;50750;51.636;4.948;2023-11-22T00:38:40;4.40;;;2.90;;
59872;SDS011;50750;51.636;4.948;2023-11-22T00:41:06;3.90;;;2.80;;
59872;SDS011;50750;51.636;4.948;2023-11-22T00:43:33;4.30;;;2.90;;
59872;SDS011;50750;51.636;4.948;2023-11-22T00:46:00;4.10;;;3.00;;
59872;SDS011;50750;51.636;4.948;2023-11-22T00:48:27;4.20;;;3.00;;
59872;SDS011;50750;51.636;4.948;2023-11-22T00:50:54;4.60;;;3.00;;
59872;SDS011;50750;51.636;4.948;2023-11-22T00:53:20;4.10;;;3.00;;
59872;SDS011;50750;51.636;4.948;2023-11-22T00:55:47;4.50;;;2.90;;
59872;SDS011;50750;51.636;4.948;2023-11-22T00:58:13;3.80;;;2.80;;
59872;SDS011;50750;51.636;4.948;2023-11-22T01:00:40;4.20;;;3.00;;
59872;SDS011;50750;51.636;4.948;2023-11-22T01:03:06;4.00;;;3.30;;
59872;SDS011;50750;51.636;4.948;2023-11-22T01:05:37;6.00;;;3.30;;
59872;SDS011;50750;51.636;4.948;2023-11-22T01:08:04;4.60;;;2.90;;
59872;SDS011;50750;51.636;4.948;2023-11-22T01:10:31;3.70;;;3.00;;
59872;SDS011;50750;51.636;4.948;2023-11-22T01:12:57;5.30;;;3.40;;
59872;SDS011;50750;51.636;4.948;2023-11-22T01:15:23;4.90;;;3.40;;
59872;SDS011;50750;51.636;4.948;2023-11-22T01:17:50;4.10;;;3.20;;
59872;SDS011;50750;51.636;4.948;2023-11-22T01:20:17;4.90;;;3.10;;
59872;SDS011;50750;51.636;4.948;2023-11-22T01:22:44;4.70;;;3.00;;
59872;SDS011;50750;51.636;4.948;2023-11-22T01:25:11;4.80;;;3.20;;
59872;SDS011;50750;51.636;4.948;2023-11-22T01:27:37;3.90;;;2.80;;
59872;SDS011;50750;51.636;4.948;2023-11-22T01:30:04;4.40;;;3.00;;
59872;SDS011;50750;51.636;4.948;2023-11-22T01:32:33;3.90;;;2.80;;
59872;SDS011;50750;51.636;4.948;2023-11-22T01:35:01;4.90;;;2.80;;
59872;SDS011;50750;51.636;4.948;2023-11-22T01:37:27;3.90;;;3.00;;
59872;SDS011;50750;51.636;4.948;2023-11-22T01:39:54;4.30;;;3.20;;
59872;SDS011;50750;51.636;4.948;2023-11-22T01:42:20;4.20;;;2.90;;
59872;SDS011;50750;51.636;4.948;2023-11-22T01:44:47;4.60;;;3.10;;
59872;SDS011;50750;51.636;4.948;2023-11-22T01:47:14;4.60;;;3.20;;
59872;SDS011;50750;51.636;4.948;2023-11-22T01:49:40;3.90;;;3.00;;
59872;SDS011;50750;51.636;4.948;2023-11-22T01:52:07;4.40;;;3.20;;
59872;SDS011;50750;51.636;4.948;2023-11-22T01:54:34;4.60;;;3.20;;
59872;SDS011;50750;51.636;4.948;2023-11-22T01:57:01;4.50;;;3.20;;
59872;SDS011;50750;51.636;4.948;2023-11-22T01:59:28;4.20;;;2.90;;
59872;SDS011;50750;51.636;4.948;2023-11-22T02:01:56;3.90;;;3.00;;
59872;SDS011;50750;51.636;4.948;2023-11-22T02:04:22;4.20;;;2.70;;
59872;SDS011;50750;51.636;4.948;2023-11-22T02:06:49;4.10;;;2.90;;
59872;SDS011;50750;51.636;4.948;2023-11-22T02:09:17;4.30;;;2.90;;
59872;SDS011;50750;51.636;4.948;2023-11-22T02:11:44;4.90;;;3.10;;
59872;SDS011;50750;51.636;4.948;2023-11-22T02:14:15;3.60;;;2.80;;
59872;SDS011;50750;51.636;4.948;2023-11-22T02:16:42;4.40;;;3.10;;
59872;SDS011;50750;51.636;4.948;2023-11-22T02:19:14;4.00;;;3.00;;
59872;SDS011;50750;51.636;4.948;2023-11-22T02:21:42;4.00;;;2.90;;
59872;SDS011;50750;51.636;4.948;2023-11-22T02:24:09;4.00;;;3.10;;
59872;SDS011;50750;51.636;4.948;2023-11-22T02:26:36;5.20;;;3.30;;
59872;SDS011;50750;51.636;4.948;2023-11-22T02:29:04;5.10;;;3.10;;
59872;SDS011;50750;51.636;4.948;2023-11-22T02:31:31;4.00;;;3.00;;
59872;SDS011;50750;51.636;4.948;2023-11-22T02:33:57;4.00;;;2.60;;
59872;SDS011;50750;51.636;4.948;2023-11-22T02:36:24;4.20;;;3.10;;
59872;SDS011;50750;51.636;4.948;2023-11-22T02:38:51;3.70;;;2.60;;
59872;SDS011;50750;51.636;4.948;2023-11-22T02:41:17;3.80;;;3.00;;
59872;SDS011;50750;51.636;4.948;2023-11-22T02:43:44;4.30;;;2.80;;
59872;SDS011;50750;51.636;4.948;2023-11-22T02:46:12;4.00;;;3.00;;
59872;SDS011;50750;51.636;4.948;2023-11-22T02:48:38;3.70;;;2.80;;
59872;SDS011;50750;51.636;4.948;2023-11-22T02:51:05;4.40;;;3.30;;
59872;SDS011;50750;51.636;4.948;2023-11-22T02:53:33;5.20;;;3.70;;
59872;SDS011;50750;51.636;4.948;2023-11-22T02:56:00;4.70;;;3.00;;
59872;SDS011;50750;51.636;4.948;2023-11-22T02:58:28;4.40;;;2.90;;
59872;SDS011;50750;51.636;4.948;2023-11-22T03:00:55;4.30;;;3.00;;
59872;SDS011;50750;51.636;4.948;2023-11-22T03:03:23;4.60;;;3.20;;
59872;SDS011;50750;51.636;4.948;2023-11-22T03:05:50;4.40;;;3.00;;
59872;SDS011;50750;51.636;4.948;2023-11-22T03:08:16;4.70;;;3.20;;
59872;SDS011;50750;51.636;4.948;2023-11-22T03:10:43;3.60;;;2.70;;
59872;SDS011;50750;51.636;4.948;2023-11-22T03:13:09;4.00;;;2.80;;
59872;SDS011;50750;51.636;4.948;2023-11-22T03:15:36;3.80;;;2.70;;
59872;SDS011;50750;51.636;4.948;2023-11-22T03:18:02;3.90;;;2.70;;
59872;SDS011;50750;51.636;4.948;2023-11-22T03:20:30;4.10;;;2.80;;
59872;SDS011;50750;51.636;4.948;2023-11-22T03:22:58;4.70;;;3.30;;
59872;SDS011;50750;51.636;4.948;2023-11-22T03:25:26;3.70;;;2.90;;
59872;SDS011;50750;51.636;4.948;2023-11-22T03:27:52;4.80;;;3.10;;
59872;SDS011;50750;51.636;4.948;2023-11-22T03:30:19;4.10;;;2.90;;
59872;SDS011;50750;51.636;4.948;2023-11-22T03:32:46;4.50;;;3.00;;
59872;SDS011;50750;51.636;4.948;2023-11-22T03:35:12;4.70;;;3.20;;
59872;SDS011;50750;51.636;4.948;2023-11-22T03:37:39;4.20;;;3.00;;
59872;SDS011;50750;51.636;4.948;2023-11-22T03:40:05;4.00;;;2.90;;
59872;SDS011;50750;51.636;4.948;2023-11-22T03:42:32;4.10;;;2.80;;
59872;SDS011;50750;51.636;4.948;2023-11-22T03:44:59;4.20;;;2.90;;
59872;SDS011;50750;51.636;4.948;2023-11-22T03:47:25;4.90;;;3.10;;
59872;SDS011;50750;51.636;4.948;2023-11-22T03:49:52;3.80;;;2.90;;
59872;SDS011;50750;51.636;4.948;2023-11-22T03:52:18;4.60;;;2.90;;
59872;SDS011;50750;51.636;4.948;2023-11-22T03:54:45;4.10;;;2.90;;
59872;SDS011;50750;51.636;4.948;2023-11-22T03:57:11;3.80;;;2.80;;
59872;SDS011;50750;51.636;4.948;2023-11-22T03:59:37;4.30;;;3.00;;
59872;SDS011;50750;51.636;4.948;2023-11-22T04:02:06;4.10;;;3.10;;
59872;SDS011;50750;51.636;4.948;2023-11-22T04:04:33;4.10;;;2.80;;
59872;SDS011;50750;51.636;4.948;2023-11-22T04:06:59;4.80;;;3.10;;
59872;SDS011;50750;51.636;4.948;2023-11-22T04:09:26;4.00;;;2.70;;
59872;SDS011;50750;51.636;4.948;2023-11-22T04:11:52;4.10;;;2.90;;
59872;SDS011;50750;51.636;4.948;2023-11-22T04:14:19;4.20;;;2.90;;
59872;SDS011;50750;51.636;4.948;2023-11-22T04:16:47;4.20;;;3.20;;
59872;SDS011;50750;51.636;4.948;2023-11-22T04:19:14;3.90;;;2.60;;
59872;SDS011;50750;51.636;4.948;2023-11-22T04:21:40;3.60;;;2.70;;
59872;SDS011;50750;51.636;4.948;2023-11-22T04:24:07;3.70;;;2.50;;
59872;SDS011;50750;51.636;4.948;2023-11-22T04:26:34;3.40;;;2.60;;
59872;SDS011;50750;51.636;4.948;2023-11-22T04:29:00;4.30;;;2.90;;
59872;SDS011;50750;51.636;4.948;2023-11-22T04:31:26;3.90;;;2.80;;
59872;SDS011;50750;51.636;4.948;2023-11-22T04:33:53;3.70;;;2.70;;
59872;SDS011;50750;51.636;4.948;2023-11-22T04:36:20;3.80;;;2.80;;
59872;SDS011;50750;51.636;4.948;2023-11-22T04:38:47;4.70;;;2.70;;
59872;SDS011;50750;51.636;4.948;2023-11-22T04:41:15;3.80;;;2.60;;
59872;SDS011;50750;51.636;4.948;2023-11-22T04:43:42;3.70;;;2.80;;
59872;SDS011;50750;51.636;4.948;2023-11-22T04:46:10;4.40;;;3.00;;
59872;SDS011;50750;51.636;4.948;2023-11-22T04:48:37;3.80;;;2.60;;
59872;SDS011;50750;51.636;4.948;2023-11-22T04:51:06;4.00;;;2.70;;
59872;SDS011;50750;51.636;4.948;2023-11-22T04:53:33;4.50;;;3.10;;
59872;SDS011;50750;51.636;4.948;2023-11-22T04:55:59;4.70;;;3.00;;
59872;SDS011;50750;51.636;4.948;2023-11-22T04:58:28;3.50;;;2.50;;
59872;SDS011;50750;51.636;4.948;2023-11-22T05:00:54;4.10;;;2.80;;
59872;SDS011;50750;51.636;4.948;2023-11-22T05:03:20;3.30;;;2.40;;
59872;SDS011;50750;51.636;4.948;2023-11-22T05:05:47;4.10;;;2.80;;
59872;SDS011;50750;51.636;4.948;2023-11-22T05:08:14;5.00;;;2.80;;
59872;SDS011;50750;51.636;4.948;2023-11-22T05:10:40;4.30;;;2.70;;
59872;SDS011;50750;51.636;4.948;2023-11-22T05:13:06;4.20;;;2.60;;
59872;SDS011;50750;51.636;4.948;2023-11-22T05:15:33;4.70;;;2.80;;
59872;SDS011;50750;51.636;4.948;2023-11-22T05:18:00;3.80;;;2.90;;
59872;SDS011;50750;51.636;4.948;2023-11-22T05:20:28;4.00;;;2.70;;
59872;SDS011;50750;51.636;4.948;2023-11-22T05:22:54;4.00;;;2.70;;
59872;SDS011;50750;51.636;4.948;2023-11-22T05:25:20;5.00;;;3.10;;
59872;SDS011;50750;51.636;4.948;2023-11-22T05:27:47;3.40;;;2.70;;
59872;SDS011;50750;51.636;4.948;2023-11-22T05:30:13;4.00;;;2.80;;
59872;SDS011;50750;51.636;4.948;2023-11-22T05:32:41;3.70;;;2.90;;
59872;SDS011;50750;51.636;4.948;2023-11-22T05:35:07;4.20;;;3.00;;
59872;SDS011;50750;51.636;4.948;2023-11-22T05:37:36;4.10;;;2.60;;
59872;SDS011;50750;51.636;4.948;2023-11-22T05:40:03;3.40;;;2.40;;
59872;SDS011;50750;51.636;4.948;2023-11-22T05:42:31;3.60;;;2.60;;
59872;SDS011;50750;51.636;4.948;2023-11-22T05:44:58;3.40;;;2.70;;
59872;SDS011;50750;51.636;4.948;2023-11-22T05:47:24;3.90;;;2.50;;
59872;SDS011;50750;51.636;4.948;2023-11-22T05:49:51;4.50;;;2.90;;
59872;SDS011;50750;51.636;4.948;2023-11-22T05:52:18;3.80;;;2.90;;
59872;SDS011;50750;51.636;4.948;2023-11-22T05:54:45;3.90;;;2.90;;
59872;SDS011;50750;51.636;4.948;2023-11-22T05:57:13;3.90;;;3.10;;
59872;SDS011;50750;51.636;4.948;2023-11-22T05:59:39;4.40;;;2.70;;
59872;SDS011;50750;51.636;4.948;2023-11-22T06:02:06;4.00;;;2.70;;
59872;SDS011;50750;51.636;4.948;2023-11-22T06:04:32;3.80;;;2.70;;
59872;SDS011;50750;51.636;4.948;2023-11-22T06:06:59;4.30;;;2.70;;
59872;SDS011;50750;51.636;4.948;2023-11-22T06:09:25;3.80;;;2.90;;
59872;SDS011;50750;51.636;4.948;2023-11-22T06:11:51;4.20;;;3.10;;
59872;SDS011;50750;51.636;4.948;2023-11-22T06:14:18;4.20;;;2.80;;
59872;SDS011;50750;51.636;4.948;2023-11-22T06:16:46;3.40;;;2.30;;
59872;SDS011;50750;51.636;4.948;2023-11-22T06:19:13;3.50;;;2.30;;
59872;SDS011;50750;51.636;4.948;2023-11-22T06:21:39;3.90;;;2.80;;
59872;SDS011;50750;51.636;4.948;2023-11-22T06:24:06;4.70;;;2.80;;
59872;SDS011;50750;51.636;4.948;2023-11-22T06:26:34;4.60;;;2.70;;
59872;SDS011;50750;51.636;4.948;2023-11-22T06:29:01;3.20;;;2.40;;
59872;SDS011;50750;51.636;4.948;2023-11-22T06:31:29;4.00;;;2.70;;
59872;SDS011;50750;51.636;4.948;2023-11-22T06:33:55;3.90;;;2.70;;
59872;SDS011;50750;51.636;4.948;2023-11-22T06:36:21;3.60;;;2.30;;
59872;SDS011;50750;51.636;4.948;2023-11-22T06:38:48;3.70;;;2.60;;
59872;SDS011;50750;51.636;4.948;2023-11-22T06:41:14;3.40;;;2.50;;
59872;SDS011;50750;51.636;4.948;2023-11-22T06:43:41;3.80;;;2.50;;
59872;SDS011;50750;51.636;4.948;2023-11-22T06:46:07;3.30;;;2.50;;
59872;SDS011;50750;51.636;4.948;2023-11-22T06:48:34;3.80;;;2.70;;
59872;SDS011;50750;51.636;4.948;2023-11-22T06:51:00;4.00;;;2.80;;
59872;SDS011;50750;51.636;4.948;2023-11-22T06:53:27;3.90;;;2.60;;
59872;SDS011;50750;51.636;4.948;2023-11-22T06:55:53;3.40;;;2.50;;
59872;SDS011;50750;51.636;4.948;2023-11-22T06:58:19;3.10;;;2.30;;
59872;SDS011;50750;51.636;4.948;2023-11-22T07:00:46;4.10;;;2.70;;
59872;SDS011;50750;51.636;4.948;2023-11-22T07:03:12;3.90;;;2.60;;
59872;SDS011;50750;51.636;4.948;2023-11-22T07:05:40;3.80;;;2.70;;
59872;SDS011;50750;51.636;4.948;2023-11-22T07:08:07;3.40;;;2.30;;
59872;SDS011;50750;51.636;4.948;2023-11-22T07:10:33;3.60;;;2.40;;
59872;SDS011;50750;51.636;4.948;2023-11-22T07:13:00;3.20;;;2.20;;
59872;SDS011;50750;51.636;4.948;2023-11-22T07:15:27;4.30;;;2.70;;
59872;SDS011;50750;51.636;4.948;2023-11-22T07:17:54;3.20;;;2.40;;
59872;SDS011;50750;51.636;4.948;2023-11-22T07:20:21;3.40;;;2.60;;
59872;SDS011;50750;51.636;4.948;2023-11-22T07:22:47;4.50;;;2.60;;
59872;SDS011;50750;51.636;4.948;2023-11-22T07:25:21;3.70;;;2.50;;
59872;SDS011;50750;51.636;4.948;2023-11-22T07:27:51;4.30;;;2.80;;
59872;SDS011;50750;51.636;4.948;2023-11-22T07:30:19;3.70;;;2.60;;
59872;SDS011;50750;51.636;4.948;2023-11-22T07:32:46;5.60;;;4.10;;
59872;SDS011;50750;51.636;4.948;2023-11-22T07:35:12;5.00;;;3.80;;
59872;SDS011;50750;51.636;4.948;2023-11-22T07:37:39;4.80;;;3.50;;
59872;SDS011;50750;51.636;4.948;2023-11-22T07:40:07;4.90;;;3.50;;
59872;SDS011;50750;51.636;4.948;2023-11-22T07:42:35;4.30;;;3.40;;
59872;SDS011;50750;51.636;4.948;2023-11-22T07:45:02;5.40;;;3.70;;
59872;SDS011;50750;51.636;4.948;2023-11-22T07:47:29;5.10;;;3.20;;
59872;SDS011;50750;51.636;4.948;2023-11-22T07:49:56;4.20;;;3.20;;
59872;SDS011;50750;51.636;4.948;2023-11-22T07:52:23;4.80;;;3.70;;
59872;SDS011;50750;51.636;4.948;2023-11-22T07:54:56;4.40;;;3.10;;
59872;SDS011;50750;51.636;4.948;2023-11-22T07:57:23;5.10;;;3.50;;
59872;SDS011;50750;51.636;4.948;2023-11-22T07:59:49;4.60;;;3.20;;
59872;SDS011;50750;51.636;4.948;2023-11-22T08:02:16;4.30;;;3.30;;
59872;SDS011;50750;51.636;4.948;2023-11-22T08:04:44;4.90;;;3.50;;
59872;SDS011;50750;51.636;4.948;2023-11-22T08:07:11;5.10;;;3.50;;
59872;SDS011;50750;51.636;4.948;2023-11-22T08:09:41;4.20;;;3.50;;
59872;SDS011;50750;51.636;4.948;2023-11-22T08:12:07;4.60;;;3.50;;
59872;SDS011;50750;51.636;4.948;2023-11-22T08:14:34;5.00;;;3.60;;
59872;SDS011;50750;51.636;4.948;2023-11-22T08:17:01;4.70;;;3.20;;
59872;SDS011;50750;51.636;4.948;2023-11-22T08:19:28;3.90;;;3.20;;
59872;SDS011;50750;51.636;4.948;2023-11-22T08:21:54;4.00;;;3.20;;
59872;SDS011;50750;51.636;4.948;2023-11-22T08:24:21;4.20;;;2.80;;
59872;SDS011;50750;51.636;4.948;2023-11-22T08:26:48;4.30;;;3.00;;
59872;SDS011;50750;51.636;4.948;2023-11-22T08:29:14;4.70;;;3.30;;
59872;SDS011;50750;51.636;4.948;2023-11-22T08:31:42;4.50;;;3.20;;
59872;SDS011;50750;51.636;4.948;2023-11-22T08:34:08;4.60;;;3.20;;
59872;SDS011;50750;51.636;4.948;2023-11-22T08:36:35;4.90;;;3.10;;
59872;SDS011;50750;51.636;4.948;2023-11-22T08:39:02;4.00;;;2.90;;
59872;SDS011;50750;51.636;4.948;2023-11-22T08:41:30;5.30;;;3.10;;
59872;SDS011;50750;51.636;4.948;2023-11-22T08:43:58;4.00;;;3.10;;
59872;SDS011;50750;51.636;4.948;2023-11-22T08:46:24;4.80;;;3.00;;
59872;SDS011;50750;51.636;4.948;2023-11-22T08:48:51;4.50;;;3.20;;
59872;SDS011;50750;51.636;4.948;2023-11-22T08:51:17;5.20;;;3.20;;
59872;SDS011;50750;51.636;4.948;2023-11-22T08:53:44;4.00;;;3.00;;
59872;SDS011;50750;51.636;4.948;2023-11-22T08:56:11;5.60;;;3.30;;
59872;SDS011;50750;51.636;4.948;2023-11-22T08:58:38;4.20;;;3.20;;
59872;SDS011;50750;51.636;4.948;2023-11-22T09:01:05;4.50;;;3.00;;
59872;SDS011;50750;51.636;4.948;2023-11-22T09:03:33;4.60;;;3.00;;
59872;SDS011;50750;51.636;4.948;2023-11-22T09:06:00;4.70;;;3.00;;
59872;SDS011;50750;51.636;4.948;2023-11-22T09:08:28;3.60;;;2.80;;
59872;SDS011;50750;51.636;4.948;2023-11-22T09:10:56;4.40;;;3.20;;
59872;SDS011;50750;51.636;4.948;2023-11-22T09:13:22;3.40;;;2.70;;
59872;SDS011;50750;51.636;4.948;2023-11-22T09:15:49;4.80;;;3.10;;
59872;SDS011;50750;51.636;4.948;2023-11-22T09:18:16;3.90;;;2.80;;
59872;SDS011;50750;51.636;4.948;2023-11-22T09:20:42;4.40;;;3.10;;
59872;SDS011;50750;51.636;4.948;2023-11-22T09:23:12;5.00;;;3.10;;
59872;SDS011;50750;51.636;4.948;2023-11-22T09:25:40;4.60;;;3.20;;
59872;SDS011;50750;51.636;4.948;2023-11-22T09:28:06;4.10;;;3.10;;
59872;SDS011;50750;51.636;4.948;2023-11-22T09:30:35;5.00;;;3.70;;
59872;SDS011;50750;51.636;4.948;2023-11-22T09:33:03;4.80;;;3.40;;
59872;SDS011;50750;51.636;4.948;2023-11-22T09:35:35;5.20;;;3.50;;
59872;SDS011;50750;51.636;4.948;2023-11-22T09:38:06;4.40;;;3.20;;
59872;SDS011;50750;51.636;4.948;2023-11-22T09:40:41;4.80;;;3.40;;
59872;SDS011;50750;51.636;4.948;2023-11-22T09:43:10;4.70;;;3.20;;
59872;SDS011;50750;51.636;4.948;2023-11-22T09:45:36;4.20;;;2.90;;
59872;SDS011;50750;51.636;4.948;2023-11-22T09:48:07;4.00;;;2.90;;
59872;SDS011;50750;51.636;4.948;2023-11-22T09:56:33;4.30;;;3.30;;
59872;SDS011;50750;51.636;4.948;2023-11-22T09:59:00;4.60;;;3.30;;
59872;SDS011;50750;51.636;4.948;2023-11-22T10:01:29;5.20;;;3.30;;
59872;SDS011;50750;51.636;4.948;2023-11-22T10:04:03;4.40;;;3.30;;
59872;SDS011;50750;51.636;4.948;2023-11-22T10:06:32;4.00;;;2.90;;
59872;SDS011;50750;51.636;4.948;2023-11-22T10:09:02;4.00;;;3.10;;
59872;SDS011;50750;51.636;4.948;2023-11-22T10:11:37;4.20;;;3.30;;
59872;SDS011;50750;51.636;4.948;2023-11-22T10:14:05;4.50;;;3.30;;
59872;SDS011;50750;51.636;4.948;2023-11-22T10:16:31;4.40;;;3.10;;
59872;SDS011;50750;51.636;4.948;2023-11-22T10:18:58;5.50;;;3.30;;
59872;SDS011;50750;51.636;4.948;2023-11-22T10:21:25;4.80;;;3.30;;
59872;SDS011;50750;51.636;4.948;2023-11-22T10:23:54;4.20;;;3.30;;
59872;SDS011;50750;51.636;4.948;2023-11-22T10:26:22;4.80;;;3.30;;
59872;SDS011;50750;51.636;4.948;2023-11-22T10:28:50;5.60;;;3.60;;
59872;SDS011;50750;51.636;4.948;2023-11-22T10:31:19;4.90;;;3.30;;
59872;SDS011;50750;51.636;4.948;2023-11-22T10:33:48;4.20;;;3.20;;
59872;SDS011;50750;51.636;4.948;2023-11-22T10:36:15;4.60;;;3.20;;
59872;SDS011;50750;51.636;4.948;2023-11-22T10:38:45;4.60;;;3.70;;
59872;SDS011;50750;51.636;4.948;2023-11-22T10:41:13;4.40;;;3.40;;
59872;SDS011;50750;51.636;4.948;2023-11-22T10:43:40;4.20;;;3.20;;
59872;SDS011;50750;51.636;4.948;2023-11-22T10:46:08;4.70;;;3.40;;
59872;SDS011;50750;51.636;4.948;2023-11-22T10:48:38;4.60;;;3.30;;
59872;SDS011;50750;51.636;4.948;2023-11-22T10:51:05;4.10;;;3.10;;
59872;SDS011;50750;51.636;4.948;2023-11-22T10:53:35;4.50;;;3.40;;
59872;SDS011;50750;51.636;4.948;2023-11-22T10:56:07;4.30;;;2.60;;
59872;SDS011;50750;51.636;4.948;2023-11-22T10:58:46;4.10;;;2.80;;
59872;SDS011;50750;51.636;4.948;2023-11-22T11:01:15;3.90;;;2.70;;
59872;SDS011;50750;51.636;4.948;2023-11-22T11:06:37;4.10;;;2.90;;
59872;SDS011;50750;51.636;4.948;2023-11-22T11:09:05;6.00;;;3.30;;
59872;SDS011;50750;51.636;4.948;2023-11-22T11:11:35;5.10;;;3.30;;
59872;SDS011;50750;51.636;4.948;2023-11-22T11:14:03;3.90;;;3.00;;
59872;SDS011;50750;51.636;4.948;2023-11-22T11:16:31;3.90;;;2.80;;
59872;SDS011;50750;51.636;4.948;2023-11-22T11:19:04;4.20;;;3.20;;
59872;SDS011;50750;51.636;4.948;2023-11-22T11:21:33;4.10;;;3.10;;
59872;SDS011;50750;51.636;4.948;2023-11-22T11:24:00;4.20;;;3.00;;
59872;SDS011;50750;51.636;4.948;2023-11-22T11:26:31;4.40;;;3.30;;
59872;SDS011;50750;51.636;4.948;2023-11-22T11:29:00;4.90;;;3.70;;
59872;SDS011;50750;51.636;4.948;2023-11-22T11:31:33;4.40;;;3.10;;
59872;SDS011;50750;51.636;4.948;2023-11-22T11:34:05;4.30;;;3.10;;
59872;SDS011;50750;51.636;4.948;2023-11-22T11:36:32;4.70;;;2.90;;
59872;SDS011;50750;51.636;4.948;2023-11-22T11:39:00;3.80;;;2.90;;
59872;SDS011;50750;51.636;4.948;2023-11-22T11:41:30;4.00;;;3.10;;
59872;SDS011;50750;51.636;4.948;2023-11-22T11:44:01;4.80;;;3.00;;
59872;SDS011;50750;51.636;4.948;2023-11-22T11:46:29;4.00;;;2.90;;
59872;SDS011;50750;51.636;4.948;2023-11-22T11:48:56;3.90;;;2.80;;
59872;SDS011;50750;51.636;4.948;2023-11-22T11:51:24;4.70;;;3.20;;
59872;SDS011;50750;51.636;4.948;2023-11-22T11:53:54;4.60;;;3.20;;
59872;SDS011;50750;51.636;4.948;2023-11-22T11:56:21;5.50;;;3.50;;
59872;SDS011;50750;51.636;4.948;2023-11-22T11:58:49;5.60;;;3.60;;
59872;SDS011;50750;51.636;4.948;2023-11-22T12:01:17;4.20;;;2.90;;
59872;SDS011;50750;51.636;4.948;2023-11-22T12:03:46;4.40;;;3.30;;
59872;SDS011;50750;51.636;4.948;2023-11-22T12:06:15;4.30;;;3.30;;
59872;SDS011;50750;51.636;4.948;2023-11-22T12:08:43;4.70;;;2.90;;
59872;SDS011;50750;51.636;4.948;2023-11-22T12:11:11;4.20;;;2.90;;
59872;SDS011;50750;51.636;4.948;2023-11-22T12:13:37;3.80;;;2.90;;
59872;SDS011;50750;51.636;4.948;2023-11-22T12:16:05;3.90;;;3.00;;
59872;SDS011;50750;51.636;4.948;2023-11-22T12:18:40;4.80;;;3.10;;
59872;SDS011;50750;51.636;4.948;2023-11-22T12:21:08;3.70;;;3.00;;
59872;SDS011;50750;51.636;4.948;2023-11-22T12:23:39;4.10;;;2.90;;
59872;SDS011;50750;51.636;4.948;2023-11-22T12:26:13;4.10;;;3.20;;
59872;SDS011;50750;51.636;4.948;2023-11-22T12:28:41;4.40;;;3.20;;
59872;SDS011;50750;51.636;4.948;2023-11-22T12:31:11;4.20;;;3.20;;
59872;SDS011;50750;51.636;4.948;2023-11-22T12:33:42;4.60;;;3.30;;
59872;SDS011;50750;51.636;4.948;2023-11-22T12:36:10;3.80;;;2.80;;
59872;SDS011;50750;51.636;4.948;2023-11-22T12:38:40;4.20;;;3.30;;
59872;SDS011;50750;51.636;4.948;2023-11-22T12:41:06;4.30;;;3.60;;
59872;SDS011;50750;51.636;4.948;2023-11-22T12:43:33;4.40;;;3.50;;
59872;SDS011;50750;51.636;4.948;2023-11-22T12:46:04;4.40;;;3.40;;
59872;SDS011;50750;51.636;4.948;2023-11-22T12:48:39;3.70;;;2.70;;
59872;SDS011;50750;51.636;4.948;2023-11-22T12:51:15;3.70;;;2.80;;
59872;SDS011;50750;51.636;4.948;2023-11-22T12:53:45;4.50;;;3.10;;
59872;SDS011;50750;51.636;4.948;2023-11-22T12:56:12;4.70;;;3.50;;
59872;SDS011;50750;51.636;4.948;2023-11-22T12:58:39;4.60;;;3.40;;
59872;SDS011;50750;51.636;4.948;2023-11-22T13:01:05;4.40;;;3.10;;
59872;SDS011;50750;51.636;4.948;2023-11-22T13:03:31;4.20;;;3.30;;
59872;SDS011;50750;51.636;4.948;2023-11-22T13:05:58;4.60;;;3.50;;
59872;SDS011;50750;51.636;4.948;2023-11-22T13:08:24;4.60;;;3.20;;
59872;SDS011;50750;51.636;4.948;2023-11-22T13:10:55;4.90;;;3.70;;
59872;SDS011;50750;51.636;4.948;2023-11-22T13:13:23;5.50;;;3.40;;
59872;SDS011;50750;51.636;4.948;2023-11-22T13:15:51;5.20;;;3.80;;
59872;SDS011;50750;51.636;4.948;2023-11-22T13:18:18;5.10;;;3.80;;
59872;SDS011;50750;51.636;4.948;2023-11-22T13:20:45;6.80;;;4.20;;
59872;SDS011;50750;51.636;4.948;2023-11-22T13:23:12;5.90;;;3.80;;
59872;SDS011;50750;51.636;4.948;2023-11-22T13:25:40;4.70;;;3.60;;
59872;SDS011;50750;51.636;4.948;2023-11-22T13:28:10;5.70;;;3.90;;
59872;SDS011;50750;51.636;4.948;2023-11-22T13:30:36;6.00;;;4.30;;
59872;SDS011;50750;51.636;4.948;2023-11-22T13:33:03;6.00;;;4.20;;
59872;SDS011;50750;51.636;4.948;2023-11-22T13:35:30;6.20;;;4.50;;
59872;SDS011;50750;51.636;4.948;2023-11-22T13:38:04;6.30;;;4.20;;
59872;SDS011;50750;51.636;4.948;2023-11-22T13:40:37;6.20;;;4.30;;
59872;SDS011;50750;51.636;4.948;2023-11-22T13:43:06;6.20;;;4.70;;
59872;SDS011;50750;51.636;4.948;2023-11-22T13:45:35;6.40;;;4.50;;
59872;SDS011;50750;51.636;4.948;2023-11-22T13:48:02;7.40;;;5.30;;
59872;SDS011;50750;51.636;4.948;2023-11-22T13:50:32;6.80;;;5.20;;
59872;SDS011;50750;51.636;4.948;2023-11-22T13:52:59;8.20;;;6.10;;
59872;SDS011;50750;51.636;4.948;2023-11-22T13:55:26;9.20;;;6.30;;
59872;SDS011;50750;51.636;4.948;2023-11-22T13:57:54;8.50;;;5.80;;
59872;SDS011;50750;51.636;4.948;2023-11-22T14:00:23;9.70;;;6.10;;
59872;SDS011;50750;51.636;4.948;2023-11-22T14:02:53;8.30;;;6.00;;
59872;SDS011;50750;51.636;4.948;2023-11-22T14:05:22;9.20;;;5.90;;
59872;SDS011;50750;51.636;4.948;2023-11-22T14:07:49;7.60;;;5.60;;
59872;SDS011;50750;51.636;4.948;2023-11-22T14:10:17;9.20;;;6.60;;
59872;SDS011;50750;51.636;4.948;2023-11-22T14:12:45;8.30;;;6.10;;
59872;SDS011;50750;51.636;4.948;2023-11-22T14:15:14;7.90;;;5.90;;
59872;SDS011;50750;51.636;4.948;2023-11-22T14:17:41;7.60;;;5.80;;
59872;SDS011;50750;51.636;4.948;2023-11-22T14:20:08;11.00;;;6.80;;
59872;SDS011;50750;51.636;4.948;2023-11-22T14:22:39;9.70;;;6.20;;
59872;SDS011;50750;51.636;4.948;2023-11-22T14:25:06;8.90;;;6.40;;
59872;SDS011;50750;51.636;4.948;2023-11-22T14:27:42;8.90;;;6.30;;
59872;SDS011;50750;51.636;4.948;2023-11-22T14:30:11;8.60;;;6.10;;
59872;SDS011;50750;51.636;4.948;2023-11-22T14:32:41;8.30;;;6.30;;
59872;SDS011;50750;51.636;4.948;2023-11-22T14:35:10;9.50;;;6.30;;
59872;SDS011;50750;51.636;4.948;2023-11-22T14:37:38;8.40;;;6.10;;
59872;SDS011;50750;51.636;4.948;2023-11-22T14:40:06;7.70;;;5.70;;
59872;SDS011;50750;51.636;4.948;2023-11-22T14:42:42;7.40;;;5.50;;
59872;SDS011;50750;51.636;4.948;2023-11-22T14:45:12;10.10;;;6.90;;
59872;SDS011;50750;51.636;4.948;2023-11-22T14:47:39;8.50;;;6.00;;
59872;SDS011;50750;51.636;4.948;2023-11-22T14:50:06;8.60;;;6.10;;
59872;SDS011;50750;51.636;4.948;2023-11-22T14:52:37;8.10;;;6.30;;
59872;SDS011;50750;51.636;4.948;2023-11-22T14:55:04;9.80;;;6.50;;
59872;SDS011;50750;51.636;4.948;2023-11-22T14:57:31;9.80;;;6.90;;
59872;SDS011;50750;51.636;4.948;2023-11-22T14:59:58;9.90;;;6.70;;